Time;durP1;ratioP1;P1;durP2;ratioP2;P2;SDS_P1;SDS_P2;PMS_P1;PMS_P2;Temp;Humidity;BMP_temperature;BMP_pressure;BME280_temperature;BME280_humidity;BME280_pressure;Samples;Min_cycle;Max_cycle;Signal;HPM_P1;HPM_P2
2023/07/24 00:01:11;;;;;;;7.20;4.80;;;;;;;14.03;100.00;97430.23;110211;1241;69190;-71
2023/07/24 00:03:41;;;;;;;7.60;4.50;;;;;;;13.98;100.00;97427.67;110189;1242;59682;-70
2023/07/24 00:06:11;;;;;;;6.80;5.10;;;;;;;13.93;100.00;97426.70;110207;1241;59718;-70
2023/07/24 00:08:42;;;;;;;6.00;4.70;;;;;;;13.87;100.00;97427.56;110215;1240;70454;-68
2023/07/24 00:11:11;;;;;;;6.70;5.10;;;;;;;13.91;100.00;97425.14;110166;1242;69262;-69
2023/07/24 00:13:41;;;;;;;6.70;5.30;;;;;;;13.91;100.00;97422.96;110201;1242;69466;-70
2023/07/24 00:16:11;;;;;;;7.90;5.00;;;;;;;13.92;100.00;97423.46;110256;1242;59743;-70
2023/07/24 00:18:41;;;;;;;7.30;5.10;;;;;;;13.92;100.00;97421.55;110220;1242;59627;-69
2023/07/24 00:21:13;;;;;;;5.70;4.70;;;;;;;13.92;100.00;97422.71;110253;1242;71370;-70
2023/07/24 00:23:43;;;;;;;6.40;4.30;;;;;;;13.93;100.00;97423.55;110234;1243;69160;-69
2023/07/24 00:26:14;;;;;;;6.30;5.10;;;;;;;13.92;100.00;97421.52;110226;1248;68560;-71
2023/07/24 00:28:43;;;;;;;;;;;;;;;13.89;100.00;97423.49;110242;1240;59731;-71
2023/07/24 00:31:13;;;;;;;7.90;4.70;;;;;;;13.89;100.00;97427.79;110211;1241;59644;-71
2023/07/24 00:33:45;;;;;;;5.60;4.30;;;;;;;13.73;100.00;97425.20;110209;1241;71691;-69
2023/07/24 00:36:16;;;;;;;5.40;4.10;;;;;;;13.69;100.00;97425.08;110236;1240;69648;-70
2023/07/24 00:38:46;;;;;;;6.00;4.50;;;;;;;13.67;100.00;97422.41;110231;1241;68608;-69
2023/07/24 00:41:16;;;;;;;6.40;4.50;;;;;;;13.63;100.00;97418.38;110197;1242;59671;-71
2023/07/24 00:43:48;;;;;;;6.80;5.00;;;;;;;13.61;100.00;97416.29;109925;1240;59667;-71
2023/07/24 00:46:19;;;;;;;6.70;5.00;;;;;;;13.58;100.00;97411.08;110189;1242;71254;-72
2023/07/24 00:48:52;;;;;;;7.60;5.50;;;;;;;13.56;100.00;97412.84;110168;1244;68544;-71
2023/07/24 00:51:22;;;;;;;6.80;4.80;;;;;;;13.54;100.00;97406.38;110197;1241;69227;-71
2023/07/24 00:54:01;;;;;;;4.50;4.00;;;;;;;13.50;100.00;97404.92;110185;1241;59754;-70
2023/07/24 00:56:33;;;;;;;6.80;5.60;;;;;;;13.46;100.00;97403.89;110141;1245;59748;-70
2023/07/24 00:59:03;;;;;;;6.30;4.90;;;;;;;13.41;100.00;97405.23;110129;1245;71380;-70
2023/07/24 01:01:33;;;;;;;6.50;4.90;;;;;;;13.36;100.00;97399.50;110209;1242;68261;-70
2023/07/24 01:04:07;;;;;;;7.30;5.20;;;;;;;13.32;100.00;97401.23;110209;1242;69330;-70
2023/07/24 01:06:38;;;;;;;6.60;5.30;;;;;;;13.29;100.00;97397.27;110136;1242;59706;-68
2023/07/24 01:09:08;;;;;;;7.70;5.40;;;;;;;13.27;100.00;97393.63;110130;1242;59675;-71
2023/07/24 01:11:44;;;;;;;8.40;5.90;;;;;;;13.25;100.00;97395.15;110216;1242;71403;-69
2023/07/24 01:14:17;;;;;;;7.00;5.80;;;;;;;13.26;100.00;97391.09;110196;1242;69053;-70
2023/07/24 01:16:50;;;;;;;7.20;5.00;;;;;;;13.21;100.00;97393.55;110225;1242;67472;-70
2023/07/24 01:19:34;;;;;;;7.40;5.90;;;;;;;13.20;100.00;97398.35;110096;1241;59697;-70
2023/07/24 01:22:48;;;;;;;7.60;5.10;;;;;;;13.17;100.00;97400.15;110189;1240;59701;-70
2023/07/24 01:25:29;;;;;;;6.70;4.60;;;;;;;13.15;100.00;97398.98;109537;1248;69622;-70
2023/07/24 01:28:06;;;;;;;7.00;5.60;;;;;;;13.15;100.00;97402.09;110219;1242;69348;-70
2023/07/24 01:30:37;;;;;;;8.00;6.10;;;;;;;13.25;100.00;97407.28;110208;1241;69129;-70
2023/07/24 01:33:08;;;;;;;7.00;6.10;;;;;;;13.21;100.00;97407.55;110203;1242;59711;-70
2023/07/24 01:35:44;;;;;;;6.70;5.30;;;;;;;13.10;100.00;97406.88;110212;1240;59729;-70
2023/07/24 01:38:16;;;;;;;7.60;5.60;;;;;;;13.19;100.00;97407.14;110168;1240;70463;-70
2023/07/24 01:40:51;;;;;;;8.20;5.60;;;;;;;13.08;100.00;97408.30;110215;1242;69601;-70
2023/07/24 01:43:27;;;;;;;7.70;5.40;;;;;;;13.03;100.00;97402.76;110166;1241;69281;-70
2023/07/24 01:46:00;;;;;;;7.70;5.50;;;;;;;13.01;100.00;97401.34;110180;1240;59672;-69
2023/07/24 01:48:32;;;;;;;8.70;6.30;;;;;;;12.99;100.00;97402.16;110202;1242;59752;-71
2023/07/24 01:51:05;;;;;;;6.30;5.50;;;;;;;12.97;100.00;97400.48;110206;1242;71229;-68
2023/07/24 01:53:39;;;;;;;7.70;5.30;;;;;;;12.94;100.00;97400.33;110146;1241;69154;-71
2023/07/24 01:56:13;;;;;;;6.50;5.50;;;;;;;12.93;100.00;97398.51;110191;1240;69127;-69
2023/07/24 01:58:47;;;;;;;6.10;5.30;;;;;;;12.91;100.00;97402.20;110150;1245;59672;-69
2023/07/24 02:01:22;;;;;;;6.90;5.40;;;;;;;12.87;100.00;97402.48;110197;1244;59633;-69
2023/07/24 02:03:58;;;;;;;7.20;5.60;;;;;;;12.86;100.00;97405.54;110168;1240;70434;-69
2023/07/24 02:06:29;;;;;;;9.60;6.00;;;;;;;12.85;100.00;97413.67;110199;1241;69442;-69
2023/07/24 02:09:02;;;;;;;6.80;5.40;;;;;;;12.80;100.00;97417.29;110169;1242;68291;-69
2023/07/24 02:11:35;;;;;;;7.30;5.10;;;;;;;12.76;100.00;97417.56;110230;1240;59754;-69
2023/07/24 02:14:06;;;;;;;8.70;6.50;;;;;;;12.73;100.00;97413.39;110210;1240;60178;-69
2023/07/24 02:16:40;;;;;;;7.90;5.90;;;;;;;12.72;100.00;97408.41;110205;1241;70674;-69
2023/07/24 02:19:15;;;;;;;8.20;5.70;;;;;;;12.68;100.00;97407.02;110204;1243;69238;-70
2023/07/24 02:21:48;;;;;;;7.90;5.30;;;;;;;12.66;100.00;97405.61;110141;1242;69302;-69
2023/07/24 02:24:22;;;;;;;6.90;5.20;;;;;;;12.63;100.00;97403.10;110120;1242;60129;-70
2023/07/24 02:26:54;;;;;;;7.40;5.40;;;;;;;12.72;100.00;97402.48;110168;1241;59682;-69
2023/07/24 02:29:25;;;;;;;9.50;5.90;;;;;;;12.71;100.00;97404.63;110224;1241;71433;-70
2023/07/24 02:31:58;;;;;;;7.00;5.60;;;;;;;12.71;100.00;97410.80;110215;1245;69434;-71
2023/07/24 02:34:32;;;;;;;7.30;5.60;;;;;;;12.71;100.00;97409.76;110247;1241;69219;-71
2023/07/24 02:37:06;;;;;;;7.70;5.20;;;;;;;12.69;100.00;97408.17;110242;1242;59731;-71
2023/07/24 02:39:41;;;;;;;5.70;4.40;;;;;;;12.66;100.00;97409.64;110236;1240;59644;-70
2023/07/24 02:42:12;;;;;;;7.30;5.60;;;;;;;12.64;100.00;97411.34;110135;1244;71559;-69
2023/07/24 02:44:43;;;;;;;8.80;6.40;;;;;;;12.59;100.00;97410.20;110187;1241;69139;-70
2023/07/24 02:47:13;;;;;;;7.20;5.20;;;;;;;12.49;100.00;97410.30;110129;1244;69612;-69
2023/07/24 02:49:44;;;;;;;8.60;5.90;;;;;;;12.50;100.00;97415.67;110213;1240;59729;-70
2023/07/24 02:52:15;;;;;;;9.90;7.00;;;;;;;12.51;100.00;97416.79;110215;1242;59678;-69
2023/07/24 02:54:46;;;;;;;7.00;5.70;;;;;;;12.52;100.00;97416.33;110223;1242;70448;-70
2023/07/24 02:57:18;;;;;;;7.60;5.00;;;;;;;12.52;100.00;97417.38;110253;1243;69101;-70
2023/07/24 02:59:49;;;;;;;6.30;4.80;;;;;;;12.52;100.00;97418.80;110174;1243;69316;-70
2023/07/24 03:02:21;;;;;;;6.20;5.10;;;;;;;12.51;100.00;97419.38;110236;1242;59662;-70
2023/07/24 03:04:53;;;;;;;6.30;5.20;;;;;;;12.51;100.00;97421.14;110220;1242;59734;-70
2023/07/24 03:07:25;;;;;;;6.20;4.90;;;;;;;12.52;100.00;97421.77;110277;1242;71427;-70
2023/07/24 03:10:00;;;;;;;6.50;5.20;;;;;;;12.53;100.00;97418.40;110230;1243;68428;-69
2023/07/24 03:12:32;;;;;;;5.60;4.40;;;;;;;12.54;100.00;97416.93;110199;1241;69420;-70
2023/07/24 03:15:02;;;;;;;;;;;;;;;12.63;100.00;97422.23;110145;1243;59669;-69
2023/07/24 03:17:34;;;;;;;6.00;4.80;;;;;;;12.72;100.00;97422.62;110072;1241;59684;-70
2023/07/24 03:20:17;;;;;;;;;;;;;;;12.75;100.00;97427.04;110225;1243;72261;-70
2023/07/24 03:22:50;;;;;;;6.10;5.00;;;;;;;12.77;100.00;97424.84;110167;1242;69528;-69
2023/07/24 03:25:23;;;;;;;5.90;4.40;;;;;;;12.76;100.00;97420.19;110169;1241;69301;-70
2023/07/24 03:27:55;;;;;;;6.70;4.60;;;;;;;12.65;100.00;97414.92;110197;1242;59679;-69
2023/07/24 03:30:27;;;;;;;6.40;5.10;;;;;;;12.66;100.00;97410.52;110144;1244;59743;-68
2023/07/24 03:33:00;;;;;;;6.80;5.30;;;;;;;12.66;100.00;97410.81;110241;1241;71418;-69
2023/07/24 03:35:33;;;;;;;7.60;5.50;;;;;;;12.67;100.00;97410.74;110130;1244;69136;-71
2023/07/24 03:38:06;;;;;;;7.40;5.50;;;;;;;12.71;100.00;97407.11;110194;1245;69466;-69
2023/07/24 03:40:39;;;;;;;6.80;5.10;;;;;;;12.73;100.00;97409.92;110199;1242;59742;-71
2023/07/24 03:43:10;;;;;;;9.10;5.60;;;;;;;12.75;100.00;97413.44;109756;1242;670515;-70
2023/07/24 03:45:42;;;;;;;6.90;5.80;;;;;;;12.79;100.00;97416.65;110224;1242;71794;-69
2023/07/24 03:48:11;;;;;;;7.30;5.00;;;;;;;12.82;100.00;97418.70;110222;1240;69256;-70
2023/07/24 03:50:41;;;;;;;9.10;5.20;;;;;;;12.86;100.00;97412.40;110142;1242;69497;-70
2023/07/24 03:53:13;;;;;;;5.30;4.80;;;;;;;12.91;100.00;97411.75;110273;1241;60107;-69
2023/07/24 03:55:45;;;;;;;7.20;4.70;;;;;;;12.97;100.00;97407.11;110257;1242;59678;-69
2023/07/24 03:58:17;;;;;;;6.80;5.30;;;;;;;13.03;100.00;97404.13;110198;1242;71458;-71
2023/07/24 04:00:47;;;;;;;6.70;5.20;;;;;;;13.10;100.00;97407.04;110217;1242;68564;-69
2023/07/24 04:03:17;;;;;;;6.40;4.70;;;;;;;13.20;100.00;97411.11;110178;1241;69441;-70
2023/07/24 04:05:47;;;;;;;6.80;4.70;;;;;;;13.32;100.00;97410.51;110151;1242;59669;-70
2023/07/24 04:08:18;;;;;;;6.30;5.30;;;;;;;13.54;100.00;97410.54;110201;1242;59756;-70
2023/07/24 04:10:48;;;;;;;7.60;5.40;;;;;;;13.68;100.00;97415.79;110156;1245;71407;-69
2023/07/24 04:13:18;;;;;;;6.20;4.70;;;;;;;13.81;100.00;97415.27;110212;1241;69035;-70
2023/07/24 04:15:48;;;;;;;7.10;4.90;;;;;;;13.93;100.00;97414.80;110151;1245;68107;-69
2023/07/24 04:18:19;;;;;;;7.80;5.80;;;;;;;14.05;100.00;97414.41;110219;1241;59726;-69
2023/07/24 04:20:50;;;;;;;6.70;5.20;;;;;;;14.18;100.00;97413.81;110203;1243;59708;-69
2023/07/24 04:23:19;;;;;;;;;;;;;;;14.34;100.00;97412.41;110187;1242;71331;-69
2023/07/24 04:25:50;;;;;;;7.20;4.80;;;;;;;14.55;100.00;97405.53;110170;1242;68268;-68
2023/07/24 04:28:20;;;;;;;;;;;;;;;14.81;100.00;97406.70;110183;1242;68509;-69
2023/07/24 04:30:50;;;;;;;6.40;4.40;;;;;;;15.06;100.00;97404.75;110191;1242;59689;-69
2023/07/24 04:33:20;;;;;;;5.40;4.60;;;;;;;15.27;100.00;97406.13;110216;1242;59683;-70
2023/07/24 04:35:50;;;;;;;5.80;4.50;;;;;;;15.42;100.00;97409.91;110169;1240;71376;-69
2023/07/24 04:38:20;;;;;;;7.90;5.00;;;;;;;15.49;100.00;97408.38;110146;1242;69700;-69
2023/07/24 04:40:50;;;;;;;7.30;4.80;;;;;;;15.50;100.00;97408.96;110163;1242;69119;-69
2023/07/24 04:43:20;;;;;;;7.70;4.70;;;;;;;15.53;100.00;97410.41;110196;1242;59737;-68
2023/07/24 04:45:51;;;;;;;5.10;4.60;;;;;;;15.58;100.00;97409.97;110198;1241;59699;-70
2023/07/24 04:48:21;;;;;;;6.60;4.90;;;;;;;15.64;100.00;97407.17;110196;1241;71543;-70
2023/07/24 04:50:55;;;;;;;5.50;4.50;;;;;;;15.75;100.00;97407.03;110214;1242;69903;-70
2023/07/24 04:53:25;;;;;;;5.80;5.00;;;;;;;15.88;100.00;97409.83;110165;1242;69313;-69
2023/07/24 04:55:54;;;;;;;6.30;4.80;;;;;;;16.02;100.00;97406.88;110200;1242;59688;-68
2023/07/24 04:58:24;;;;;;;5.70;4.70;;;;;;;16.15;100.00;97410.42;110231;1242;59673;-69
2023/07/24 05:00:54;;;;;;;6.50;4.70;;;;;;;16.27;100.00;97413.27;110165;1242;71394;-69
2023/07/24 05:03:24;;;;;;;;;;;;;;;16.44;100.00;97411.38;110184;1242;68676;-70
2023/07/24 05:05:57;;;;;;;7.10;5.30;;;;;;;16.54;100.00;97415.66;110164;1242;68587;-68
2023/07/24 05:08:28;;;;;;;6.20;4.40;;;;;;;16.60;100.00;97415.41;110198;1241;59708;-69
2023/07/24 05:10:58;;;;;;;7.50;5.10;;;;;;;16.66;100.00;97415.21;110189;1240;59769;-70
2023/07/24 05:13:27;;;;;;;6.60;5.00;;;;;;;16.85;100.00;97417.21;110223;1242;71365;-69
2023/07/24 05:15:56;;;;;;;;;;;;;;;17.22;99.00;97416.24;110206;1242;68500;-68
2023/07/24 05:18:26;;;;;;;5.40;4.20;;;;;;;17.53;99.12;97418.76;110195;1242;69845;-68
2023/07/24 05:20:55;;;;;;;6.20;4.40;;;;;;;17.87;96.47;97421.08;110206;1243;59747;-68
2023/07/24 05:23:24;;;;;;;6.00;4.30;;;;;;;18.39;98.00;97419.39;110181;1242;59646;-70
2023/07/24 05:26:01;;;;;;;6.20;4.40;;;;;;;19.00;97.25;97412.94;110255;1242;71096;-70
2023/07/24 05:28:31;;;;;;;5.10;4.20;;;;;;;19.42;90.45;97413.90;110231;1242;69202;-68
2023/07/24 05:31:02;;;;;;;6.10;4.10;;;;;;;19.85;91.45;97415.39;110209;1243;69881;-68
2023/07/24 05:33:32;;;;;;;5.40;4.10;;;;;;;20.37;91.46;97414.95;110239;1241;59761;-71
2023/07/24 05:36:03;;;;;;;6.60;4.60;;;;;;;20.75;84.08;97410.79;110226;1241;59629;-69
2023/07/24 05:38:33;;;;;;;5.20;4.10;;;;;;;20.87;80.51;97406.73;110226;1243;71361;-69
2023/07/24 05:41:03;;;;;;;4.80;3.50;;;;;;;21.22;78.12;97405.73;110177;1243;69343;-69
2023/07/24 05:43:33;;;;;;;6.70;4.30;;;;;;;21.32;74.93;97405.82;110205;1242;69843;-68
2023/07/24 05:46:03;;;;;;;5.60;4.20;;;;;;;21.14;74.84;97404.09;110196;1240;59729;-68
2023/07/24 05:48:33;;;;;;;6.50;4.20;;;;;;;21.14;74.47;97402.00;110208;1242;59669;-69
2023/07/24 05:51:02;;;;;;;5.90;3.80;;;;;;;21.01;76.00;97398.96;110225;1241;72009;-69
2023/07/24 05:53:32;;;;;;;5.20;4.20;;;;;;;21.02;76.16;97396.12;110231;1242;69228;-69
2023/07/24 05:56:02;;;;;;;5.40;3.60;;;;;;;20.98;77.54;97390.61;110237;1242;69268;-69
2023/07/24 05:58:32;;;;;;;5.40;4.10;;;;;;;21.04;78.95;97390.23;110249;1242;59714;-70
2023/07/24 06:01:02;;;;;;;5.20;4.10;;;;;;;21.11;78.16;97386.38;110252;1242;59624;-68
2023/07/24 06:03:31;;;;;;;5.50;3.70;;;;;;;21.35;77.97;97387.58;110252;1242;71362;-69
2023/07/24 06:06:00;;;;;;;7.40;4.20;;;;;;;21.55;76.29;97390.67;110240;1240;69073;-69
2023/07/24 06:08:30;;;;;;;;;;;;;;;21.77;75.98;97386.33;110239;1242;69902;-71
2023/07/24 06:10:59;;;;;;;6.00;4.00;;;;;;;22.04;76.94;97388.07;110214;1242;59737;-69
2023/07/24 06:13:28;;;;;;;6.10;3.80;;;;;;;22.47;74.08;97386.63;110244;1242;59687;-70
2023/07/24 06:15:57;;;;;;;5.80;3.90;;;;;;;22.90;73.49;97378.63;110190;1241;70720;-69
2023/07/24 06:18:26;;;;;;;5.90;4.80;;;;;;;23.34;74.31;97371.49;110205;1242;70378;-69
2023/07/24 06:20:57;;;;;;;7.20;5.70;;;;;;;23.76;72.27;97372.38;110214;1242;69572;-70
2023/07/24 06:23:27;;;;;;;7.10;5.30;;;;;;;24.12;70.55;97375.51;110211;1241;59706;-69
2023/07/24 06:25:56;;;;;;;;;;;;;;;24.33;67.87;97370.14;110221;1242;59671;-69
2023/07/24 06:28:25;;;;;;;7.90;5.40;;;;;;;24.64;67.73;97368.91;110200;1242;71326;-69
2023/07/24 06:30:55;;;;;;;6.70;5.10;;;;;;;24.99;66.38;97367.63;110223;1244;69799;-70
2023/07/24 06:33:24;;;;;;;5.50;4.00;;;;;;;25.22;65.03;97368.70;110163;1242;69258;-70
2023/07/24 06:35:52;;;;;;;5.10;3.80;;;;;;;25.40;64.48;97369.16;110179;1241;59750;-69
2023/07/24 06:38:22;;;;;;;;;;;;;;;25.46;62.43;97365.37;110194;1242;59753;-69
2023/07/24 06:40:50;;;;;;;;;;;;;;;25.53;62.64;97367.05;110201;1242;71285;-69
2023/07/24 06:43:20;;;;;;;9.60;6.80;;;;;;;25.82;60.47;97364.77;110178;1244;69650;-67
2023/07/24 06:45:49;;;;;;;7.90;6.50;;;;;;;25.82;58.82;97362.09;110162;1246;68389;-71
2023/07/24 06:48:19;;;;;;;11.40;6.70;;;;;;;25.91;59.62;97359.56;110150;1246;59773;-71
2023/07/24 06:50:49;;;;;;;8.80;6.60;;;;;;;25.92;59.68;97360.67;110165;1241;59744;-71
2023/07/24 06:53:19;;;;;;;8.00;6.40;;;;;;;25.99;58.77;97357.02;110171;1240;71422;-69
2023/07/24 06:55:48;;;;;;;;;;;;;;;26.20;59.21;97350.41;110166;1242;69651;-69
2023/07/24 06:58:18;;;;;;;8.60;5.80;;;;;;;26.49;58.17;97353.71;110192;1242;69288;-70
2023/07/24 07:00:47;;;;;;;9.70;6.60;;;;;;;26.79;57.76;97344.08;110213;1242;59644;-70
2023/07/24 07:03:16;;;;;;;7.60;5.70;;;;;;;26.96;56.89;97339.95;110222;1242;59667;-71
2023/07/24 07:05:45;;;;;;;;;;;;;;;27.07;55.39;97338.44;110241;1241;70974;-71
2023/07/24 07:08:14;;;;;;;8.50;5.70;;;;;;;27.19;56.09;97334.02;110373;1242;69800;-71
2023/07/24 07:10:43;;;;;;;9.20;6.30;;;;;;;27.32;54.77;97332.68;110193;1242;69284;-70
2023/07/24 07:13:13;;;;;;;8.90;6.20;;;;;;;27.10;54.61;97335.54;110206;1242;59744;-71
2023/07/24 07:15:42;;;;;;;7.10;5.70;;;;;;;27.25;55.30;97339.11;110166;1244;59640;-70
2023/07/24 07:18:11;;;;;;;6.10;4.70;;;;;;;27.41;55.13;97338.88;110195;1242;70808;-71
2023/07/24 07:20:48;;;;;;;6.60;4.70;;;;;;;27.44;52.96;97340.35;110201;1241;70287;-72
2023/07/24 07:23:19;;;;;;;7.00;4.00;;;;;;;27.60;53.68;97343.70;110152;1242;68978;-72
2023/07/24 07:25:49;;;;;;;6.60;5.10;;;;;;;27.91;53.53;97341.72;110207;1242;59667;-71
2023/07/24 07:28:19;;;;;;;6.20;4.70;;;;;;;27.78;53.01;97344.54;110217;1242;59662;-72
2023/07/24 07:30:48;;;;;;;6.20;4.30;;;;;;;28.20;53.87;97342.42;110241;1241;71340;-72
2023/07/24 07:33:17;;;;;;;6.20;4.80;;;;;;;28.60;52.18;97335.80;110231;1242;69510;-71
2023/07/24 07:35:46;;;;;;;5.70;4.90;;;;;;;28.83;51.29;97336.73;110223;1242;70015;-71
2023/07/24 07:38:15;;;;;;;6.70;5.10;;;;;;;29.05;50.76;97335.23;110214;1242;59747;-71
2023/07/24 07:40:44;;;;;;;;;;;;;;;29.11;49.71;97330.67;110222;1243;59673;-70
2023/07/24 07:43:13;;;;;;;;;;;;;;;28.80;49.67;97333.26;110187;1241;71956;-71
2023/07/24 07:45:42;;;;;;;5.00;4.20;;;;;;;28.60;50.88;97329.26;110162;1242;69218;-71
2023/07/24 07:48:11;;;;;;;4.50;4.10;;;;;;;29.05;49.99;97324.66;110177;1243;69287;-70
2023/07/24 07:50:42;;;;;;;4.10;3.70;;;;;;;29.07;49.47;97318.58;110185;1242;59684;-71
2023/07/24 07:53:10;;;;;;;6.00;4.30;;;;;;;29.23;50.72;97319.44;110198;1247;59682;-71
2023/07/24 07:55:39;;;;;;;;;;;;;;;29.50;49.10;97319.94;110385;1244;71358;-71
2023/07/24 07:58:08;;;;;;;;;;;;;;;29.75;48.74;97324.11;110334;1246;69725;-71
2023/07/24 08:00:40;;;;;;;4.20;3.30;;;;;;;29.87;48.09;97324.64;110220;1242;69329;-70
2023/07/24 08:03:10;;;;;;;6.50;4.10;;;;;;;30.08;48.08;97321.00;110224;1243;61072;-71
2023/07/24 08:05:39;;;;;;;6.00;4.80;;;;;;;30.30;46.36;97323.46;110189;1240;59766;-71
2023/07/24 08:08:08;;;;;;;4.90;4.00;;;;;;;30.27;45.82;97316.97;110187;1240;72001;-71
2023/07/24 08:10:42;;;;;;;4.70;3.60;;;;;;;29.83;47.16;97314.00;110170;1242;69885;-69
2023/07/24 08:13:11;;;;;;;4.50;3.70;;;;;;;29.88;47.15;97317.51;110167;1242;69290;-71
2023/07/24 08:15:40;;;;;;;6.60;4.00;;;;;;;30.03;45.67;97316.52;110210;1241;60127;-70
2023/07/24 08:18:09;;;;;;;5.10;4.50;;;;;;;29.93;45.88;97317.59;110195;1242;59698;-71
2023/07/24 08:20:40;;;;;;;4.40;3.70;;;;;;;29.27;46.90;97308.23;110247;1241;71680;-72
2023/07/24 08:23:09;;;;;;;3.50;3.00;;;;;;;28.76;47.52;97307.39;110353;1243;69105;-70
2023/07/24 08:25:38;;;;;;;6.00;4.10;;;;;;;29.04;46.96;97303.69;110212;1243;69937;-71
2023/07/24 08:28:07;;;;;;;4.40;3.50;;;;;;;29.57;46.67;97305.35;110196;1241;59703;-72
2023/07/24 08:30:36;;;;;;;4.90;4.20;;;;;;;29.83;46.23;97301.13;110288;1249;59669;-71
2023/07/24 08:33:05;;;;;;;4.00;3.50;;;;;;;30.04;45.77;97294.45;110193;1242;72249;-70
2023/07/24 08:35:35;;;;;;;4.00;3.40;;;;;;;29.78;46.58;97297.73;110247;1242;69858;-71
2023/07/24 08:38:04;;;;;;;5.10;3.50;;;;;;;30.20;46.40;97297.42;110287;1243;69613;-71
2023/07/24 08:40:33;;;;;;;3.90;3.50;;;;;;;30.42;45.57;97296.63;110160;1241;59674;-71
2023/07/24 08:43:04;;;;;;;6.10;4.00;;;;;;;30.40;45.47;97295.52;110177;1243;59795;-71
2023/07/24 08:45:40;;;;;;;5.40;3.90;;;;;;;30.43;44.44;97293.90;110197;1240;71325;-71
2023/07/24 08:48:10;;;;;;;4.00;3.60;;;;;;;30.59;43.89;97296.02;110302;1240;70252;-70
2023/07/24 08:50:39;;;;;;;5.20;3.50;;;;;;;30.83;42.19;97288.70;110155;1242;69075;-72
2023/07/24 08:53:08;;;;;;;4.70;3.80;;;;;;;30.81;42.05;97287.71;110123;1240;60000;-71
2023/07/24 08:55:39;;;;;;;5.70;4.00;;;;;;;30.91;41.81;97289.13;110193;1243;60094;-70
2023/07/24 08:58:09;;;;;;;4.30;3.20;;;;;;;30.77;42.08;97291.58;110190;1242;71950;-71
2023/07/24 09:00:38;;;;;;;3.20;2.90;;;;;;;31.03;41.21;97287.09;110219;1247;68700;-73
2023/07/24 09:03:08;;;;;;;4.70;3.70;;;;;;;31.51;41.06;97287.20;110345;1242;68547;-71
2023/07/24 09:05:37;;;;;;;4.30;3.70;;;;;;;31.82;40.28;97286.46;110113;1246;60065;-71
2023/07/24 09:08:07;;;;;;;4.40;3.50;;;;;;;32.10;39.27;97284.05;110188;1245;59630;-70
2023/07/24 09:10:37;;;;;;;4.50;3.60;;;;;;;32.25;38.35;97281.70;110139;1246;71193;-71
2023/07/24 09:13:07;;;;;;;3.60;2.90;;;;;;;31.91;38.76;97280.89;110295;1243;70024;-71
2023/07/24 09:15:42;;;;;;;4.40;3.80;;;;;;;31.51;40.41;97281.64;110156;1252;69784;-71
2023/07/24 09:18:11;;;;;;;5.70;4.20;;;;;;;31.64;39.03;97276.75;110114;1245;59738;-70
2023/07/24 09:20:43;;;;;;;4.10;3.40;;;;;;;31.67;38.04;97272.73;110103;1242;59615;-70
2023/07/24 09:23:13;;;;;;;4.20;2.80;;;;;;;31.70;39.56;97271.98;110167;1243;72012;-71
2023/07/24 09:25:47;;;;;;;4.90;3.90;;;;;;;32.06;38.92;97270.59;110166;1249;69228;-72
2023/07/24 09:28:17;;;;;;;4.70;3.10;;;;;;;32.51;36.84;97265.23;110104;1252;69668;-71
2023/07/24 09:30:57;;;;;;;3.80;3.40;;;;;;;32.73;36.90;97266.73;110265;1245;59751;-70
2023/07/24 09:33:38;;;;;;;4.30;3.10;;;;;;;32.86;36.74;97261.77;110135;1243;59681;-70
2023/07/24 09:36:09;;;;;;;5.00;3.90;;;;;;;33.18;36.95;97254.96;110155;1251;70598;-71
2023/07/24 09:38:40;;;;;;;3.90;3.30;;;;;;;33.33;35.01;97247.80;110101;1252;69227;-70
2023/07/24 09:41:09;;;;;;;4.40;3.40;;;;;;;33.22;36.32;97247.04;110071;1246;69233;-73
2023/07/24 09:43:41;;;;;;;3.90;3.20;;;;;;;33.57;35.88;97240.98;110324;1243;59741;-72
2023/07/24 09:46:11;;;;;;;5.80;3.90;;;;;;;33.71;35.26;97242.02;110277;1245;59633;-72
2023/07/24 09:48:41;;;;;;;4.30;3.30;;;;;;;33.81;33.96;97238.48;110140;1243;71981;-72
2023/07/24 09:51:31;;;;;;;4.10;3.00;;;;;;;33.59;34.09;97230.95;110109;1243;69799;-70
2023/07/24 09:54:15;;;;;;;5.00;3.90;;;;;;;32.65;36.57;97225.81;110141;1243;69454;-71
2023/07/24 09:56:45;;;;;;;5.40;3.70;;;;;;;32.45;36.90;97221.19;110117;1244;59779;-72
2023/07/24 09:59:27;;;;;;;4.20;3.30;;;;;;;32.42;36.58;97219.30;110262;1245;59688;-72
2023/07/24 10:01:56;;;;;;;4.40;3.20;;;;;;;32.72;36.36;97216.13;110120;1242;70655;-70
2023/07/24 10:04:25;;;;;;;3.70;3.10;;;;;;;32.82;35.34;97213.35;110127;1241;69177;-69
2023/07/24 10:06:55;;;;;;;5.20;3.20;;;;;;;32.73;35.66;97209.86;110153;1241;69865;-69
2023/07/24 10:09:25;;;;;;;4.90;3.90;;;;;;;32.85;34.04;97217.80;110162;1244;60160;-72
2023/07/24 10:12:01;;;;;;;5.10;3.30;;;;;;;33.02;33.34;97214.77;110120;1241;59747;-71
2023/07/24 10:14:31;;;;;;;4.80;3.50;;;;;;;33.23;33.03;97215.27;110088;1241;72046;-70
2023/07/24 10:17:00;;;;;;;4.00;3.40;;;;;;;33.17;32.39;97211.02;110123;1251;68542;-72
2023/07/24 10:19:45;;;;;;;3.80;3.10;;;;;;;33.27;32.38;97212.70;110320;1246;68547;-71
2023/07/24 10:22:21;;;;;;;4.60;3.50;;;;;;;33.24;31.83;97212.54;110284;1246;59682;-72
2023/07/24 10:24:55;;;;;;;3.80;3.00;;;;;;;33.29;32.56;97211.09;110274;1245;59621;-73
2023/07/24 10:27:25;;;;;;;3.80;3.30;;;;;;;33.21;30.60;97210.83;110310;1241;71417;-72
2023/07/24 10:30:04;;;;;;;4.50;3.30;;;;;;;32.83;32.42;97203.45;110268;1241;68539;-72
2023/07/24 10:32:51;;;;;;;4.00;3.30;;;;;;;32.17;33.21;97202.92;110182;1246;68530;-72
2023/07/24 10:35:24;;;;;;;4.10;3.30;;;;;;;32.17;33.88;97204.08;110267;1246;59747;-72
2023/07/24 10:38:02;;;;;;;4.00;3.20;;;;;;;31.87;34.16;97201.86;110161;1241;59762;-73
2023/07/24 10:40:32;;;;;;;4.20;3.00;;;;;;;31.49;35.69;97198.21;110113;1246;71416;-73
2023/07/24 10:43:05;;;;;;;4.50;3.40;;;;;;;31.84;35.82;97196.98;110250;1245;68688;-72
2023/07/24 10:45:52;;;;;;;5.10;3.90;;;;;;;31.96;35.08;97193.14;110233;1246;69320;-72
2023/07/24 10:48:26;;;;;;;4.10;3.10;;;;;;;31.98;35.11;97186.89;110230;1243;59711;-73
2023/07/24 10:50:55;;;;;;;4.30;3.30;;;;;;;32.03;34.69;97182.61;110220;1241;60271;-72
2023/07/24 10:53:25;;;;;;;4.00;3.30;;;;;;;31.79;34.04;97179.15;110133;1241;70660;-72
2023/07/24 10:55:54;;;;;;;4.80;3.30;;;;;;;31.40;34.56;97177.73;110290;1241;69268;-72
2023/07/24 10:58:25;;;;;;;3.80;2.70;;;;;;;31.30;35.32;97173.29;110154;1246;69948;-74
2023/07/24 11:00:56;;;;;;;3.90;2.80;;;;;;;31.53;34.74;97167.42;110241;1246;59801;-74
2023/07/24 11:03:25;;;;;;;4.90;3.00;;;;;;;31.89;34.55;97161.87;110251;1244;59686;-73
2023/07/24 11:05:54;;;;;;;4.20;3.20;;;;;;;31.92;33.75;97165.20;110129;1245;71413;-72
2023/07/24 11:08:24;;;;;;;3.90;3.10;;;;;;;31.85;32.38;97163.77;110250;1241;69213;-72
2023/07/24 11:10:57;;;;;;;4.20;3.40;;;;;;;31.98;32.88;97157.70;110159;1242;69344;-71
2023/07/24 11:13:27;;;;;;;3.20;2.60;;;;;;;32.27;32.51;97153.17;110148;1245;59654;-72
2023/07/24 11:16:05;;;;;;;4.40;3.20;;;;;;;32.66;32.03;97152.00;110124;1246;59750;-72
2023/07/24 11:18:48;;;;;;;3.80;2.90;;;;;;;32.95;32.08;97152.06;110161;1245;71216;-72
2023/07/24 11:21:23;;;;;;;4.00;2.50;;;;;;;33.21;31.62;97146.71;110246;1241;69923;-72
2023/07/24 11:23:54;;;;;;;4.00;3.30;;;;;;;33.42;31.94;97145.61;110094;1241;69566;-72
2023/07/24 11:26:25;;;;;;;4.50;3.20;;;;;;;33.71;31.13;97149.98;110161;1246;59745;-72
2023/07/24 11:28:55;;;;;;;3.30;2.70;;;;;;;33.65;30.71;97147.02;110178;1245;59707;-73
2023/07/24 11:31:24;;;;;;;4.30;3.40;;;;;;;33.65;30.57;97138.04;110121;1241;71262;-72
2023/07/24 11:33:54;;;;;;;4.50;3.00;;;;;;;33.53;30.56;97135.01;110183;1246;69799;-72
2023/07/24 11:36:24;;;;;;;4.10;3.00;;;;;;;33.41;31.03;97130.41;110296;1241;69129;-72
2023/07/24 11:38:53;;;;;;;4.40;3.40;;;;;;;33.50;31.40;97129.73;110241;1242;59731;-72
2023/07/24 11:41:22;;;;;;;4.40;3.00;;;;;;;33.31;30.06;97130.77;110138;1241;59734;-70
2023/07/24 11:43:51;;;;;;;3.50;3.20;;;;;;;33.11;30.29;97130.02;110182;1241;71982;-72
2023/07/24 11:46:30;;;;;;;4.00;2.80;;;;;;;33.18;30.11;97126.33;110162;1241;69271;-72